sensor_id;sensor_type;location;lat;lon;timestamp;P1;durP1;ratioP1;P2;durP2;ratioP2
5058;SDS011;2548;52.050;11.036;2023-05-16T00:02:04;19.38;;;16.63;;
5058;SDS011;2548;52.050;11.036;2023-05-16T00:04:33;23.55;;;15.68;;
5058;SDS011;2548;52.050;11.036;2023-05-16T00:07:01;22.23;;;16.77;;
5058;SDS011;2548;52.050;11.036;2023-05-16T00:09:29;22.05;;;16.10;;
5058;SDS011;2548;52.050;11.036;2023-05-16T00:11:56;27.42;;;19.17;;
5058;SDS011;2548;52.050;11.036;2023-05-16T00:14:24;20.63;;;17.92;;
5058;SDS011;2548;52.050;11.036;2023-05-16T00:16:52;22.33;;;17.10;;
5058;SDS011;2548;52.050;11.036;2023-05-16T00:19:19;35.90;;;19.25;;
5058;SDS011;2548;52.050;11.036;2023-05-16T00:21:48;28.00;;;19.90;;
5058;SDS011;2548;52.050;11.036;2023-05-16T00:24:15;26.77;;;17.83;;
5058;SDS011;2548;52.050;11.036;2023-05-16T00:26:43;20.58;;;17.50;;
5058;SDS011;2548;52.050;11.036;2023-05-16T00:29:10;24.63;;;19.45;;
5058;SDS011;2548;52.050;11.036;2023-05-16T00:31:38;33.58;;;17.55;;
5058;SDS011;2548;52.050;11.036;2023-05-16T00:34:05;21.60;;;17.65;;
5058;SDS011;2548;52.050;11.036;2023-05-16T00:36:33;30.35;;;16.35;;
5058;SDS011;2548;52.050;11.036;2023-05-16T00:39:02;29.63;;;18.02;;
5058;SDS011;2548;52.050;11.036;2023-05-16T00:41:30;21.00;;;16.67;;
5058;SDS011;2548;52.050;11.036;2023-05-16T00:43:57;23.02;;;16.98;;
5058;SDS011;2548;52.050;11.036;2023-05-16T00:46:24;19.30;;;17.20;;
5058;SDS011;2548;52.050;11.036;2023-05-16T00:48:52;21.85;;;15.98;;
5058;SDS011;2548;52.050;11.036;2023-05-16T00:51:20;23.00;;;16.55;;
5058;SDS011;2548;52.050;11.036;2023-05-16T00:53:47;16.67;;;14.93;;
5058;SDS011;2548;52.050;11.036;2023-05-16T00:56:16;19.00;;;15.55;;
5058;SDS011;2548;52.050;11.036;2023-05-16T00:58:44;23.77;;;14.20;;
5058;SDS011;2548;52.050;11.036;2023-05-16T01:01:11;17.20;;;14.70;;
5058;SDS011;2548;52.050;11.036;2023-05-16T01:03:39;15.50;;;12.23;;
5058;SDS011;2548;52.050;11.036;2023-05-16T01:06:10;18.33;;;11.60;;
5058;SDS011;2548;52.050;11.036;2023-05-16T01:08:38;18.02;;;11.05;;
5058;SDS011;2548;52.050;11.036;2023-05-16T01:11:08;16.08;;;11.82;;
5058;SDS011;2548;52.050;11.036;2023-05-16T01:13:47;11.52;;;10.43;;
5058;SDS011;2548;52.050;11.036;2023-05-16T01:16:23;20.83;;;11.98;;
5058;SDS011;2548;52.050;11.036;2023-05-16T01:18:56;17.83;;;12.23;;
5058;SDS011;2548;52.050;11.036;2023-05-16T01:21:38;11.68;;;10.25;;
5058;SDS011;2548;52.050;11.036;2023-05-16T01:24:13;15.05;;;10.15;;
5058;SDS011;2548;52.050;11.036;2023-05-16T01:26:48;14.50;;;9.50;;
5058;SDS011;2548;52.050;11.036;2023-05-16T01:29:17;15.15;;;10.13;;
5058;SDS011;2548;52.050;11.036;2023-05-16T01:31:45;11.05;;;9.95;;
5058;SDS011;2548;52.050;11.036;2023-05-16T01:34:12;13.07;;;10.45;;
5058;SDS011;2548;52.050;11.036;2023-05-16T01:36:42;13.93;;;10.40;;
5058;SDS011;2548;52.050;11.036;2023-05-16T01:39:15;12.00;;;10.30;;
5058;SDS011;2548;52.050;11.036;2023-05-16T01:41:52;14.23;;;10.52;;
5058;SDS011;2548;52.050;11.036;2023-05-16T01:44:28;14.77;;;9.10;;
5058;SDS011;2548;52.050;11.036;2023-05-16T01:47:00;14.88;;;9.68;;
5058;SDS011;2548;52.050;11.036;2023-05-16T01:49:33;9.70;;;8.80;;
5058;SDS011;2548;52.050;11.036;2023-05-16T01:52:07;9.75;;;8.75;;
5058;SDS011;2548;52.050;11.036;2023-05-16T01:54:37;13.95;;;9.73;;
5058;SDS011;2548;52.050;11.036;2023-05-16T01:57:09;10.32;;;9.15;;
5058;SDS011;2548;52.050;11.036;2023-05-16T01:59:38;14.25;;;8.60;;
5058;SDS011;2548;52.050;11.036;2023-05-16T02:02:09;10.55;;;9.45;;
5058;SDS011;2548;52.050;11.036;2023-05-16T02:04:37;10.68;;;9.32;;
5058;SDS011;2548;52.050;11.036;2023-05-16T02:07:05;10.63;;;8.48;;
5058;SDS011;2548;52.050;11.036;2023-05-16T02:09:32;16.65;;;9.70;;
5058;SDS011;2548;52.050;11.036;2023-05-16T02:12:00;13.85;;;10.00;;
5058;SDS011;2548;52.050;11.036;2023-05-16T02:14:29;15.40;;;10.13;;
5058;SDS011;2548;52.050;11.036;2023-05-16T02:16:57;13.07;;;10.75;;
5058;SDS011;2548;52.050;11.036;2023-05-16T02:19:24;13.93;;;10.38;;
5058;SDS011;2548;52.050;11.036;2023-05-16T02:21:52;14.70;;;10.52;;
5058;SDS011;2548;52.050;11.036;2023-05-16T02:24:19;13.98;;;9.40;;
5058;SDS011;2548;52.050;11.036;2023-05-16T02:26:47;11.48;;;8.50;;
5058;SDS011;2548;52.050;11.036;2023-05-16T02:29:14;8.65;;;7.78;;
5058;SDS011;2548;52.050;11.036;2023-05-16T02:31:43;16.83;;;7.88;;
5058;SDS011;2548;52.050;11.036;2023-05-16T02:34:11;9.10;;;7.50;;
5058;SDS011;2548;52.050;11.036;2023-05-16T02:36:41;12.18;;;7.47;;
5058;SDS011;2548;52.050;11.036;2023-05-16T02:39:08;7.97;;;7.20;;
5058;SDS011;2548;52.050;11.036;2023-05-16T02:41:36;10.20;;;6.70;;
5058;SDS011;2548;52.050;11.036;2023-05-16T02:44:03;6.25;;;5.57;;
5058;SDS011;2548;52.050;11.036;2023-05-16T02:46:32;6.63;;;6.22;;
5058;SDS011;2548;52.050;11.036;2023-05-16T02:49:01;6.97;;;5.95;;
5058;SDS011;2548;52.050;11.036;2023-05-16T02:51:29;6.82;;;6.13;;
5058;SDS011;2548;52.050;11.036;2023-05-16T02:53:56;6.15;;;5.53;;
5058;SDS011;2548;52.050;11.036;2023-05-16T02:56:24;7.72;;;5.40;;
5058;SDS011;2548;52.050;11.036;2023-05-16T02:58:52;5.65;;;5.13;;
5058;SDS011;2548;52.050;11.036;2023-05-16T03:01:20;6.18;;;5.72;;
5058;SDS011;2548;52.050;11.036;2023-05-16T03:03:48;5.55;;;5.05;;
5058;SDS011;2548;52.050;11.036;2023-05-16T03:06:17;11.52;;;6.80;;
5058;SDS011;2548;52.050;11.036;2023-05-16T03:08:44;5.22;;;4.75;;
5058;SDS011;2548;52.050;11.036;2023-05-16T03:11:12;4.85;;;4.45;;
5058;SDS011;2548;52.050;11.036;2023-05-16T03:13:41;4.85;;;4.38;;
5058;SDS011;2548;52.050;11.036;2023-05-16T03:16:08;7.38;;;5.80;;
5058;SDS011;2548;52.050;11.036;2023-05-16T03:18:36;7.22;;;5.53;;
5058;SDS011;2548;52.050;11.036;2023-05-16T03:21:04;8.45;;;4.72;;
5058;SDS011;2548;52.050;11.036;2023-05-16T03:23:33;8.65;;;6.40;;
5058;SDS011;2548;52.050;11.036;2023-05-16T03:26:03;8.48;;;5.80;;
5058;SDS011;2548;52.050;11.036;2023-05-16T03:28:30;5.28;;;4.88;;
5058;SDS011;2548;52.050;11.036;2023-05-16T03:30:58;6.68;;;5.70;;
5058;SDS011;2548;52.050;11.036;2023-05-16T03:33:25;10.15;;;5.75;;
5058;SDS011;2548;52.050;11.036;2023-05-16T03:35:53;9.27;;;6.13;;
5058;SDS011;2548;52.050;11.036;2023-05-16T03:38:20;10.60;;;5.43;;
5058;SDS011;2548;52.050;11.036;2023-05-16T03:40:49;8.32;;;6.05;;
5058;SDS011;2548;52.050;11.036;2023-05-16T03:43:16;12.65;;;5.85;;
5058;SDS011;2548;52.050;11.036;2023-05-16T03:45:44;7.20;;;6.18;;
5058;SDS011;2548;52.050;11.036;2023-05-16T03:48:11;7.07;;;5.25;;
5058;SDS011;2548;52.050;11.036;2023-05-16T03:50:39;8.88;;;6.63;;
5058;SDS011;2548;52.050;11.036;2023-05-16T03:53:06;10.82;;;5.70;;
5058;SDS011;2548;52.050;11.036;2023-05-16T03:55:34;10.55;;;6.25;;
5058;SDS011;2548;52.050;11.036;2023-05-16T03:58:03;6.15;;;5.65;;
5058;SDS011;2548;52.050;11.036;2023-05-16T04:00:30;5.57;;;4.90;;
5058;SDS011;2548;52.050;11.036;2023-05-16T04:02:59;9.45;;;5.78;;
5058;SDS011;2548;52.050;11.036;2023-05-16T04:05:26;5.55;;;4.40;;
5058;SDS011;2548;52.050;11.036;2023-05-16T04:07:54;8.25;;;4.25;;
5058;SDS011;2548;52.050;11.036;2023-05-16T04:10:21;5.00;;;4.40;;
5058;SDS011;2548;52.050;11.036;2023-05-16T04:12:49;7.05;;;4.45;;
5058;SDS011;2548;52.050;11.036;2023-05-16T04:15:18;3.95;;;3.65;;
5058;SDS011;2548;52.050;11.036;2023-05-16T04:17:46;8.55;;;4.05;;
5058;SDS011;2548;52.050;11.036;2023-05-16T04:20:13;7.78;;;4.97;;
5058;SDS011;2548;52.050;11.036;2023-05-16T04:22:41;4.70;;;4.28;;
5058;SDS011;2548;52.050;11.036;2023-05-16T04:25:09;4.88;;;3.55;;
5058;SDS011;2548;52.050;11.036;2023-05-16T04:27:37;6.90;;;4.85;;
5058;SDS011;2548;52.050;11.036;2023-05-16T04:30:04;4.50;;;4.20;;
5058;SDS011;2548;52.050;11.036;2023-05-16T04:32:34;7.00;;;5.60;;
5058;SDS011;2548;52.050;11.036;2023-05-16T04:35:01;5.45;;;4.18;;
5058;SDS011;2548;52.050;11.036;2023-05-16T04:37:29;4.80;;;4.50;;
5058;SDS011;2548;52.050;11.036;2023-05-16T04:39:57;4.18;;;3.78;;
5058;SDS011;2548;52.050;11.036;2023-05-16T04:42:24;7.28;;;4.72;;
5058;SDS011;2548;52.050;11.036;2023-05-16T04:44:52;4.60;;;3.05;;
5058;SDS011;2548;52.050;11.036;2023-05-16T04:47:20;7.38;;;3.83;;
5058;SDS011;2548;52.050;11.036;2023-05-16T04:49:49;4.38;;;4.07;;
5058;SDS011;2548;52.050;11.036;2023-05-16T04:52:17;7.10;;;4.28;;
5058;SDS011;2548;52.050;11.036;2023-05-16T04:54:44;3.90;;;3.70;;
5058;SDS011;2548;52.050;11.036;2023-05-16T04:57:12;4.53;;;4.20;;
5058;SDS011;2548;52.050;11.036;2023-05-16T04:59:39;6.75;;;4.20;;
5058;SDS011;2548;52.050;11.036;2023-05-16T05:02:07;6.78;;;4.30;;
5058;SDS011;2548;52.050;11.036;2023-05-16T05:04:34;4.45;;;4.05;;
5058;SDS011;2548;52.050;11.036;2023-05-16T05:07:04;6.93;;;4.53;;
5058;SDS011;2548;52.050;11.036;2023-05-16T05:09:31;7.35;;;4.60;;
5058;SDS011;2548;52.050;11.036;2023-05-16T05:11:58;3.95;;;3.67;;
5058;SDS011;2548;52.050;11.036;2023-05-16T05:14:26;4.97;;;4.30;;
5058;SDS011;2548;52.050;11.036;2023-05-16T05:16:53;6.10;;;3.30;;
5058;SDS011;2548;52.050;11.036;2023-05-16T05:19:21;5.28;;;3.00;;
5058;SDS011;2548;52.050;11.036;2023-05-16T05:21:48;6.10;;;2.88;;
5058;SDS011;2548;52.050;11.036;2023-05-16T05:24:17;5.88;;;3.75;;
5058;SDS011;2548;52.050;11.036;2023-05-16T05:26:44;4.55;;;2.78;;
5058;SDS011;2548;52.050;11.036;2023-05-16T05:29:12;3.85;;;2.70;;
5058;SDS011;2548;52.050;11.036;2023-05-16T05:31:39;3.53;;;2.63;;
5058;SDS011;2548;52.050;11.036;2023-05-16T05:34:07;6.22;;;2.83;;
5058;SDS011;2548;52.050;11.036;2023-05-16T05:36:34;2.60;;;2.42;;
5058;SDS011;2548;52.050;11.036;2023-05-16T05:39:02;1.77;;;1.55;;
5058;SDS011;2548;52.050;11.036;2023-05-16T05:41:30;3.78;;;1.90;;
5058;SDS011;2548;52.050;11.036;2023-05-16T05:43:58;5.05;;;1.70;;
5058;SDS011;2548;52.050;11.036;2023-05-16T05:46:25;4.18;;;1.60;;
5058;SDS011;2548;52.050;11.036;2023-05-16T05:48:53;4.00;;;1.63;;
5058;SDS011;2548;52.050;11.036;2023-05-16T05:51:20;11.63;;;1.80;;
5058;SDS011;2548;52.050;11.036;2023-05-16T05:53:48;0.95;;;0.95;;
5058;SDS011;2548;52.050;11.036;2023-05-16T05:56:15;6.05;;;2.03;;
5058;SDS011;2548;52.050;11.036;2023-05-16T05:58:44;2.85;;;1.33;;
5058;SDS011;2548;52.050;11.036;2023-05-16T06:01:12;2.40;;;1.80;;
5058;SDS011;2548;52.050;11.036;2023-05-16T06:03:39;1.60;;;1.30;;
5058;SDS011;2548;52.050;11.036;2023-05-16T06:06:07;3.00;;;1.67;;
5058;SDS011;2548;52.050;11.036;2023-05-16T06:08:35;6.53;;;2.08;;
5058;SDS011;2548;52.050;11.036;2023-05-16T06:11:02;3.13;;;2.15;;
5058;SDS011;2548;52.050;11.036;2023-05-16T06:13:30;2.97;;;1.70;;
5058;SDS011;2548;52.050;11.036;2023-05-16T06:15:59;2.22;;;2.00;;
5058;SDS011;2548;52.050;11.036;2023-05-16T06:18:26;2.17;;;1.80;;
5058;SDS011;2548;52.050;11.036;2023-05-16T06:20:54;12.38;;;2.72;;
5058;SDS011;2548;52.050;11.036;2023-05-16T06:23:21;4.50;;;2.35;;
5058;SDS011;2548;52.050;11.036;2023-05-16T06:25:49;6.75;;;1.95;;
5058;SDS011;2548;52.050;11.036;2023-05-16T06:28:16;3.05;;;1.42;;
5058;SDS011;2548;52.050;11.036;2023-05-16T06:30:44;10.60;;;2.10;;
5058;SDS011;2548;52.050;11.036;2023-05-16T06:33:14;5.45;;;2.20;;
5058;SDS011;2548;52.050;11.036;2023-05-16T06:35:41;3.38;;;1.92;;
5058;SDS011;2548;52.050;11.036;2023-05-16T06:38:09;17.48;;;2.60;;
5058;SDS011;2548;52.050;11.036;2023-05-16T06:40:36;2.50;;;1.75;;
5058;SDS011;2548;52.050;11.036;2023-05-16T06:43:04;13.07;;;2.47;;
5058;SDS011;2548;52.050;11.036;2023-05-16T06:45:31;6.18;;;1.83;;
5058;SDS011;2548;52.050;11.036;2023-05-16T06:47:59;6.20;;;2.78;;
5058;SDS011;2548;52.050;11.036;2023-05-16T06:50:28;11.32;;;2.50;;
5058;SDS011;2548;52.050;11.036;2023-05-16T06:52:55;8.95;;;2.15;;
5058;SDS011;2548;52.050;11.036;2023-05-16T06:55:25;4.65;;;2.17;;
5058;SDS011;2548;52.050;11.036;2023-05-16T06:57:55;1.80;;;1.50;;
5058;SDS011;2548;52.050;11.036;2023-05-16T07:00:23;7.15;;;1.85;;
5058;SDS011;2548;52.050;11.036;2023-05-16T07:02:54;6.55;;;1.90;;
5058;SDS011;2548;52.050;11.036;2023-05-16T07:05:22;10.40;;;2.35;;
5058;SDS011;2548;52.050;11.036;2023-05-16T07:07:51;7.82;;;2.72;;
5058;SDS011;2548;52.050;11.036;2023-05-16T07:10:19;11.07;;;3.00;;
5058;SDS011;2548;52.050;11.036;2023-05-16T07:12:46;9.13;;;2.42;;
5058;SDS011;2548;52.050;11.036;2023-05-16T07:15:14;15.80;;;2.47;;
5058;SDS011;2548;52.050;11.036;2023-05-16T07:17:42;9.60;;;2.17;;
5058;SDS011;2548;52.050;11.036;2023-05-16T07:20:10;12.13;;;3.38;;
5058;SDS011;2548;52.050;11.036;2023-05-16T07:22:38;12.57;;;2.35;;
5058;SDS011;2548;52.050;11.036;2023-05-16T07:25:07;9.25;;;2.67;;
5058;SDS011;2548;52.050;11.036;2023-05-16T07:27:37;14.55;;;2.70;;
5058;SDS011;2548;52.050;11.036;2023-05-16T07:30:07;11.75;;;2.33;;
5058;SDS011;2548;52.050;11.036;2023-05-16T07:32:38;5.85;;;2.40;;
5058;SDS011;2548;52.050;11.036;2023-05-16T07:35:06;6.30;;;2.60;;
5058;SDS011;2548;52.050;11.036;2023-05-16T07:37:34;13.35;;;2.97;;
5058;SDS011;2548;52.050;11.036;2023-05-16T07:40:18;9.73;;;2.75;;
5058;SDS011;2548;52.050;11.036;2023-05-16T07:42:50;17.23;;;3.42;;
5058;SDS011;2548;52.050;11.036;2023-05-16T07:45:18;18.83;;;3.55;;
5058;SDS011;2548;52.050;11.036;2023-05-16T07:47:46;7.78;;;3.05;;
5058;SDS011;2548;52.050;11.036;2023-05-16T07:50:13;15.25;;;3.95;;
5058;SDS011;2548;52.050;11.036;2023-05-16T07:52:41;16.30;;;3.30;;
5058;SDS011;2548;52.050;11.036;2023-05-16T07:55:10;10.63;;;2.92;;
5058;SDS011;2548;52.050;11.036;2023-05-16T07:57:38;11.10;;;3.28;;
5058;SDS011;2548;52.050;11.036;2023-05-16T08:00:08;14.30;;;2.92;;
5058;SDS011;2548;52.050;11.036;2023-05-16T08:02:46;18.67;;;2.95;;
5058;SDS011;2548;52.050;11.036;2023-05-16T08:05:20;19.75;;;2.83;;
5058;SDS011;2548;52.050;11.036;2023-05-16T08:07:48;22.92;;;3.17;;
5058;SDS011;2548;52.050;11.036;2023-05-16T08:10:17;14.80;;;3.15;;
5058;SDS011;2548;52.050;11.036;2023-05-16T08:12:44;17.67;;;4.60;;
5058;SDS011;2548;52.050;11.036;2023-05-16T08:15:13;10.63;;;2.55;;
5058;SDS011;2548;52.050;11.036;2023-05-16T08:17:40;18.98;;;3.38;;
5058;SDS011;2548;52.050;11.036;2023-05-16T08:20:08;10.23;;;2.67;;
5058;SDS011;2548;52.050;11.036;2023-05-16T08:22:40;15.43;;;2.40;;
5058;SDS011;2548;52.050;11.036;2023-05-16T08:25:08;10.05;;;1.70;;
5058;SDS011;2548;52.050;11.036;2023-05-16T08:27:44;16.05;;;2.53;;
5058;SDS011;2548;52.050;11.036;2023-05-16T08:30:12;12.25;;;1.92;;
5058;SDS011;2548;52.050;11.036;2023-05-16T08:32:52;10.18;;;2.08;;
5058;SDS011;2548;52.050;11.036;2023-05-16T08:35:20;4.90;;;1.70;;
5058;SDS011;2548;52.050;11.036;2023-05-16T08:37:50;15.43;;;3.17;;
5058;SDS011;2548;52.050;11.036;2023-05-16T08:40:18;8.60;;;2.20;;
5058;SDS011;2548;52.050;11.036;2023-05-16T08:42:48;9.57;;;2.10;;
5058;SDS011;2548;52.050;11.036;2023-05-16T08:45:16;11.95;;;1.85;;
5058;SDS011;2548;52.050;11.036;2023-05-16T08:47:43;13.75;;;2.55;;
5058;SDS011;2548;52.050;11.036;2023-05-16T08:50:17;5.10;;;1.88;;
5058;SDS011;2548;52.050;11.036;2023-05-16T08:52:55;13.60;;;2.45;;
5058;SDS011;2548;52.050;11.036;2023-05-16T08:55:23;3.33;;;1.30;;
5058;SDS011;2548;52.050;11.036;2023-05-16T08:57:53;6.38;;;2.38;;
5058;SDS011;2548;52.050;11.036;2023-05-16T09:00:22;10.88;;;2.58;;
5058;SDS011;2548;52.050;11.036;2023-05-16T09:02:50;7.60;;;2.00;;
5058;SDS011;2548;52.050;11.036;2023-05-16T09:05:19;7.45;;;1.40;;
5058;SDS011;2548;52.050;11.036;2023-05-16T09:07:53;6.07;;;1.90;;
5058;SDS011;2548;52.050;11.036;2023-05-16T09:10:23;4.80;;;1.70;;
5058;SDS011;2548;52.050;11.036;2023-05-16T09:12:51;12.20;;;2.47;;
5058;SDS011;2548;52.050;11.036;2023-05-16T09:15:20;7.70;;;2.55;;
5058;SDS011;2548;52.050;11.036;2023-05-16T09:17:48;12.38;;;2.28;;
5058;SDS011;2548;52.050;11.036;2023-05-16T09:20:16;9.93;;;2.45;;
5058;SDS011;2548;52.050;11.036;2023-05-16T09:22:51;10.85;;;2.53;;
5058;SDS011;2548;52.050;11.036;2023-05-16T09:25:21;6.45;;;2.30;;
5058;SDS011;2548;52.050;11.036;2023-05-16T09:27:51;13.27;;;2.85;;
5058;SDS011;2548;52.050;11.036;2023-05-16T09:30:26;11.00;;;3.13;;
5058;SDS011;2548;52.050;11.036;2023-05-16T09:32:56;16.65;;;2.50;;
5058;SDS011;2548;52.050;11.036;2023-05-16T09:35:23;7.97;;;2.35;;
5058;SDS011;2548;52.050;11.036;2023-05-16T09:37:54;6.85;;;2.75;;
5058;SDS011;2548;52.050;11.036;2023-05-16T09:40:24;11.52;;;2.78;;
5058;SDS011;2548;52.050;11.036;2023-05-16T09:43:00;10.63;;;1.73;;
5058;SDS011;2548;52.050;11.036;2023-05-16T09:45:29;12.55;;;2.25;;
5058;SDS011;2548;52.050;11.036;2023-05-16T09:48:03;9.00;;;2.35;;
5058;SDS011;2548;52.050;11.036;2023-05-16T09:50:32;10.73;;;2.70;;
5058;SDS011;2548;52.050;11.036;2023-05-16T09:53:03;7.63;;;2.35;;
5058;SDS011;2548;52.050;11.036;2023-05-16T09:55:31;13.65;;;2.20;;
5058;SDS011;2548;52.050;11.036;2023-05-16T09:58:07;7.60;;;2.25;;
5058;SDS011;2548;52.050;11.036;2023-05-16T10:00:35;5.90;;;2.22;;
5058;SDS011;2548;52.050;11.036;2023-05-16T10:03:07;9.23;;;2.30;;
5058;SDS011;2548;52.050;11.036;2023-05-16T10:05:35;11.38;;;2.00;;
5058;SDS011;2548;52.050;11.036;2023-05-16T10:08:03;11.30;;;2.42;;
5058;SDS011;2548;52.050;11.036;2023-05-16T10:10:33;11.07;;;1.95;;
5058;SDS011;2548;52.050;11.036;2023-05-16T10:13:05;18.15;;;2.67;;
5058;SDS011;2548;52.050;11.036;2023-05-16T10:15:37;7.55;;;2.00;;
5058;SDS011;2548;52.050;11.036;2023-05-16T10:18:08;5.20;;;1.85;;
5058;SDS011;2548;52.050;11.036;2023-05-16T10:20:38;8.65;;;2.58;;
5058;SDS011;2548;52.050;11.036;2023-05-16T10:23:08;6.20;;;2.17;;
5058;SDS011;2548;52.050;11.036;2023-05-16T10:25:44;6.72;;;2.33;;
5058;SDS011;2548;52.050;11.036;2023-05-16T10:28:15;3.83;;;1.77;;
5058;SDS011;2548;52.050;11.036;2023-05-16T10:30:46;2.95;;;1.40;;
5058;SDS011;2548;52.050;11.036;2023-05-16T10:33:14;5.57;;;1.90;;
5058;SDS011;2548;52.050;11.036;2023-05-16T10:35:43;8.52;;;2.40;;
5058;SDS011;2548;52.050;11.036;2023-05-16T10:38:12;6.65;;;1.92;;
5058;SDS011;2548;52.050;11.036;2023-05-16T10:40:43;20.13;;;2.65;;
5058;SDS011;2548;52.050;11.036;2023-05-16T10:43:21;14.70;;;2.08;;
5058;SDS011;2548;52.050;11.036;2023-05-16T10:45:58;17.25;;;2.13;;
5058;SDS011;2548;52.050;11.036;2023-05-16T10:48:29;5.15;;;1.85;;
5058;SDS011;2548;52.050;11.036;2023-05-16T10:50:58;6.13;;;2.05;;
5058;SDS011;2548;52.050;11.036;2023-05-16T10:53:36;9.95;;;2.53;;
5058;SDS011;2548;52.050;11.036;2023-05-16T10:56:07;8.18;;;1.40;;
5058;SDS011;2548;52.050;11.036;2023-05-16T10:58:43;12.60;;;2.40;;
5058;SDS011;2548;52.050;11.036;2023-05-16T11:01:14;5.93;;;2.03;;
5058;SDS011;2548;52.050;11.036;2023-05-16T11:04:03;11.13;;;2.40;;
5058;SDS011;2548;52.050;11.036;2023-05-16T11:06:43;6.45;;;1.75;;
5058;SDS011;2548;52.050;11.036;2023-05-16T11:09:22;7.97;;;1.50;;
5058;SDS011;2548;52.050;11.036;2023-05-16T11:12:08;6.45;;;1.88;;
5058;SDS011;2548;52.050;11.036;2023-05-16T11:14:38;15.43;;;2.35;;
5058;SDS011;2548;52.050;11.036;2023-05-16T11:17:14;11.75;;;1.67;;
5058;SDS011;2548;52.050;11.036;2023-05-16T11:19:47;9.15;;;1.70;;
5058;SDS011;2548;52.050;11.036;2023-05-16T11:22:22;12.18;;;2.00;;
5058;SDS011;2548;52.050;11.036;2023-05-16T11:25:02;6.13;;;1.35;;
5058;SDS011;2548;52.050;11.036;2023-05-16T11:27:32;9.25;;;1.90;;
5058;SDS011;2548;52.050;11.036;2023-05-16T11:30:10;4.72;;;1.58;;
5058;SDS011;2548;52.050;11.036;2023-05-16T11:32:39;6.78;;;1.70;;
5058;SDS011;2548;52.050;11.036;2023-05-16T11:35:08;7.93;;;1.20;;
5058;SDS011;2548;52.050;11.036;2023-05-16T11:37:40;5.45;;;1.45;;
5058;SDS011;2548;52.050;11.036;2023-05-16T11:40:11;3.47;;;1.60;;
5058;SDS011;2548;52.050;11.036;2023-05-16T11:42:40;6.95;;;1.73;;
5058;SDS011;2548;52.050;11.036;2023-05-16T11:45:11;5.63;;;1.60;;
5058;SDS011;2548;52.050;11.036;2023-05-16T11:47:41;6.60;;;1.60;;
5058;SDS011;2548;52.050;11.036;2023-05-16T11:50:11;8.43;;;1.30;;
5058;SDS011;2548;52.050;11.036;2023-05-16T11:52:40;13.95;;;1.98;;
5058;SDS011;2548;52.050;11.036;2023-05-16T11:55:10;12.05;;;1.58;;
5058;SDS011;2548;52.050;11.036;2023-05-16T11:57:39;5.75;;;1.85;;
5058;SDS011;2548;52.050;11.036;2023-05-16T12:00:14;4.82;;;2.38;;
5058;SDS011;2548;52.050;11.036;2023-05-16T12:02:44;8.50;;;1.77;;
5058;SDS011;2548;52.050;11.036;2023-05-16T12:05:12;8.45;;;1.65;;
5058;SDS011;2548;52.050;11.036;2023-05-16T12:07:42;8.13;;;2.00;;
5058;SDS011;2548;52.050;11.036;2023-05-16T12:10:10;9.20;;;1.20;;
5058;SDS011;2548;52.050;11.036;2023-05-16T12:12:41;6.15;;;1.30;;
5058;SDS011;2548;52.050;11.036;2023-05-16T12:15:10;9.48;;;1.42;;
5058;SDS011;2548;52.050;11.036;2023-05-16T12:17:40;2.92;;;1.50;;
5058;SDS011;2548;52.050;11.036;2023-05-16T12:20:09;3.45;;;1.55;;
5058;SDS011;2548;52.050;11.036;2023-05-16T12:22:39;6.18;;;0.95;;
5058;SDS011;2548;52.050;11.036;2023-05-16T12:25:20;8.55;;;1.40;;
5058;SDS011;2548;52.050;11.036;2023-05-16T12:27:49;4.53;;;1.20;;
5058;SDS011;2548;52.050;11.036;2023-05-16T12:30:27;11.65;;;1.40;;
5058;SDS011;2548;52.050;11.036;2023-05-16T12:33:01;1.50;;;1.00;;
5058;SDS011;2548;52.050;11.036;2023-05-16T12:35:32;4.35;;;1.00;;
5058;SDS011;2548;52.050;11.036;2023-05-16T12:38:02;6.73;;;1.00;;
5058;SDS011;2548;52.050;11.036;2023-05-16T12:40:32;3.50;;;1.38;;
5058;SDS011;2548;52.050;11.036;2023-05-16T12:43:01;2.33;;;1.20;;
5058;SDS011;2548;52.050;11.036;2023-05-16T12:45:29;5.93;;;1.98;;
5058;SDS011;2548;52.050;11.036;2023-05-16T12:48:00;3.83;;;1.23;;
5058;SDS011;2548;52.050;11.036;2023-05-16T12:50:31;4.57;;;1.47;;
5058;SDS011;2548;52.050;11.036;2023-05-16T12:53:01;8.73;;;1.40;;
5058;SDS011;2548;52.050;11.036;2023-05-16T12:55:32;5.43;;;1.50;;
5058;SDS011;2548;52.050;11.036;2023-05-16T12:57:59;2.47;;;1.15;;
5058;SDS011;2548;52.050;11.036;2023-05-16T13:00:27;4.53;;;1.50;;
5058;SDS011;2548;52.050;11.036;2023-05-16T13:02:57;5.22;;;1.60;;
5058;SDS011;2548;52.050;11.036;2023-05-16T13:05:25;3.85;;;1.33;;
5058;SDS011;2548;52.050;11.036;2023-05-16T13:07:53;3.17;;;1.30;;
5058;SDS011;2548;52.050;11.036;2023-05-16T13:10:21;3.47;;;1.77;;
5058;SDS011;2548;52.050;11.036;2023-05-16T13:12:51;11.13;;;2.20;;
5058;SDS011;2548;52.050;11.036;2023-05-16T13:15:23;1.98;;;1.27;;
5058;SDS011;2548;52.050;11.036;2023-05-16T13:17:51;7.00;;;1.20;;
5058;SDS011;2548;52.050;11.036;2023-05-16T13:20:20;6.47;;;1.10;;
5058;SDS011;2548;52.050;11.036;2023-05-16T13:22:48;4.88;;;1.48;;
5058;SDS011;2548;52.050;11.036;2023-05-16T13:25:16;2.83;;;1.13;;
5058;SDS011;2548;52.050;11.036;2023-05-16T13:27:43;6.47;;;1.55;;
5058;SDS011;2548;52.050;11.036;2023-05-16T13:30:14;5.03;;;0.93;;
5058;SDS011;2548;52.050;11.036;2023-05-16T13:32:41;6.05;;;1.10;;
5058;SDS011;2548;52.050;11.036;2023-05-16T13:35:09;9.60;;;2.00;;
5058;SDS011;2548;52.050;11.036;2023-05-16T13:37:38;5.93;;;1.63;;
5058;SDS011;2548;52.050;11.036;2023-05-16T13:40:06;7.82;;;2.00;;
5058;SDS011;2548;52.050;11.036;2023-05-16T13:42:35;8.98;;;1.45;;
5058;SDS011;2548;52.050;11.036;2023-05-16T13:45:03;4.60;;;0.82;;
5058;SDS011;2548;52.050;11.036;2023-05-16T13:47:32;5.68;;;1.10;;
5058;SDS011;2548;52.050;11.036;2023-05-16T13:50:00;3.72;;;1.10;;
5058;SDS011;2548;52.050;11.036;2023-05-16T13:52:32;3.35;;;1.20;;
5058;SDS011;2548;52.050;11.036;2023-05-16T13:55:01;2.55;;;1.00;;
5058;SDS011;2548;52.050;11.036;2023-05-16T13:57:30;6.97;;;1.35;;
5058;SDS011;2548;52.050;11.036;2023-05-16T13:59:57;1.70;;;0.90;;
5058;SDS011;2548;52.050;11.036;2023-05-16T14:02:25;1.63;;;0.73;;
5058;SDS011;2548;52.050;11.036;2023-05-16T14:04:53;5.93;;;1.15;;
5058;SDS011;2548;52.050;11.036;2023-05-16T14:07:20;3.15;;;1.13;;
5058;SDS011;2548;52.050;11.036;2023-05-16T14:09:48;2.80;;;0.82;;
5058;SDS011;2548;52.050;11.036;2023-05-16T14:12:18;15.07;;;1.35;;
5058;SDS011;2548;52.050;11.036;2023-05-16T14:14:49;1.40;;;0.97;;
5058;SDS011;2548;52.050;11.036;2023-05-16T14:17:17;3.83;;;1.23;;
5058;SDS011;2548;52.050;11.036;2023-05-16T14:19:47;2.83;;;1.10;;
5058;SDS011;2548;52.050;11.036;2023-05-16T14:22:18;8.02;;;1.40;;
5058;SDS011;2548;52.050;11.036;2023-05-16T14:24:45;2.40;;;1.10;;
5058;SDS011;2548;52.050;11.036;2023-05-16T14:27:16;4.30;;;1.13;;
5058;SDS011;2548;52.050;11.036;2023-05-16T14:29:47;11.18;;;1.50;;
5058;SDS011;2548;52.050;11.036;2023-05-16T14:32:18;7.50;;;1.45;;
5058;SDS011;2548;52.050;11.036;2023-05-16T14:34:45;1.10;;;0.98;;
5058;SDS011;2548;52.050;11.036;2023-05-16T14:37:13;7.55;;;0.90;;
5058;SDS011;2548;52.050;11.036;2023-05-16T14:39:41;3.50;;;1.40;;
5058;SDS011;2548;52.050;11.036;2023-05-16T14:42:09;5.85;;;1.90;;
5058;SDS011;2548;52.050;11.036;2023-05-16T14:44:37;3.80;;;1.42;;
5058;SDS011;2548;52.050;11.036;2023-05-16T14:47:09;4.70;;;1.37;;
5058;SDS011;2548;52.050;11.036;2023-05-16T14:49:37;2.25;;;1.05;;
5058;SDS011;2548;52.050;11.036;2023-05-16T14:52:05;1.40;;;1.30;;
5058;SDS011;2548;52.050;11.036;2023-05-16T14:54:33;1.10;;;0.90;;
5058;SDS011;2548;52.050;11.036;2023-05-16T14:57:01;3.28;;;1.08;;
5058;SDS011;2548;52.050;11.036;2023-05-16T14:59:29;5.22;;;1.38;;
5058;SDS011;2548;52.050;11.036;2023-05-16T15:01:57;12.27;;;1.50;;
5058;SDS011;2548;52.050;11.036;2023-05-16T15:04:27;9.17;;;2.03;;
5058;SDS011;2548;52.050;11.036;2023-05-16T15:06:54;5.50;;;1.50;;
5058;SDS011;2548;52.050;11.036;2023-05-16T15:09:22;5.03;;;1.13;;